sensor_id;sensor_type;location;lat;lon;timestamp;pressure;altitude;pressure_sealevel;temperature;humidity
7026;BME280;3554;42.132;24.786;2023-03-14T00:00:25;99857.38;;;5.17;100.00
7026;BME280;3554;42.132;24.786;2023-03-14T00:02:52;99849.63;;;5.14;100.00
7026;BME280;3554;42.132;24.786;2023-03-14T00:05:19;99843.59;;;5.12;100.00
7026;BME280;3554;42.132;24.786;2023-03-14T00:07:46;99842.72;;;5.13;100.00
7026;BME280;3554;42.132;24.786;2023-03-14T00:10:14;99829.03;;;5.02;100.00
7026;BME280;3554;42.132;24.786;2023-03-14T00:12:41;99832.53;;;4.98;100.00
7026;BME280;3554;42.132;24.786;2023-03-14T00:15:09;99833.34;;;5.01;100.00
7026;BME280;3554;42.132;24.786;2023-03-14T00:17:38;99836.91;;;4.93;100.00
7026;BME280;3554;42.132;24.786;2023-03-14T00:20:06;99830.88;;;4.89;100.00
7026;BME280;3554;42.132;24.786;2023-03-14T00:22:35;99813.63;;;4.85;100.00
7026;BME280;3554;42.132;24.786;2023-03-14T00:25:04;99815.44;;;4.79;100.00
7026;BME280;3554;42.132;24.786;2023-03-14T00:27:31;99818.84;;;4.81;100.00
7026;BME280;3554;42.132;24.786;2023-03-14T00:29:58;99800.88;;;4.66;100.00
7026;BME280;3554;42.132;24.786;2023-03-14T00:32:24;99812.91;;;4.73;100.00
7026;BME280;3554;42.132;24.786;2023-03-14T00:34:53;99811.19;;;4.73;100.00
7026;BME280;3554;42.132;24.786;2023-03-14T00:37:19;99810.44;;;4.58;100.00
7026;BME280;3554;42.132;24.786;2023-03-14T00:39:46;99798.41;;;4.52;100.00
7026;BME280;3554;42.132;24.786;2023-03-14T00:42:13;99795.72;;;4.61;100.00
7026;BME280;3554;42.132;24.786;2023-03-14T00:44:40;99795.69;;;4.66;100.00
7026;BME280;3554;42.132;24.786;2023-03-14T00:47:06;99795.66;;;4.69;100.00
7026;BME280;3554;42.132;24.786;2023-03-14T00:49:33;99784.47;;;4.64;100.00
7026;BME280;3554;42.132;24.786;2023-03-14T00:52:02;99763.94;;;4.44;100.00
7026;BME280;3554;42.132;24.786;2023-03-14T00:54:29;99776.81;;;4.53;100.00
7026;BME280;3554;42.132;24.786;2023-03-14T00:56:55;99780.22;;;4.58;100.00
7026;BME280;3554;42.132;24.786;2023-03-14T00:59:22;99776.69;;;4.64;100.00
7026;BME280;3554;42.132;24.786;2023-03-14T01:01:49;99775.91;;;4.59;100.00
7026;BME280;3554;42.132;24.786;2023-03-14T01:04:16;99772.38;;;4.61;100.00
7026;BME280;3554;42.132;24.786;2023-03-14T01:06:42;99769.81;;;4.60;100.00
7026;BME280;3554;42.132;24.786;2023-03-14T01:09:11;99732.91;;;4.40;100.00
7026;BME280;3554;42.132;24.786;2023-03-14T01:11:37;99763.06;;;4.47;100.00
7026;BME280;3554;42.132;24.786;2023-03-14T01:14:04;99750.91;;;4.49;100.00
7026;BME280;3554;42.132;24.786;2023-03-14T01:16:35;99741.50;;;4.42;100.00
7026;BME280;3554;42.132;24.786;2023-03-14T01:19:02;99748.34;;;4.47;100.00
7026;BME280;3554;42.132;24.786;2023-03-14T01:21:31;99744.91;;;4.48;100.00
7026;BME280;3554;42.132;24.786;2023-03-14T01:24:01;99749.22;;;4.48;100.00
7026;BME280;3554;42.132;24.786;2023-03-14T01:26:31;99736.25;;;4.48;100.00
7026;BME280;3554;42.132;24.786;2023-03-14T01:28:59;99737.94;;;4.52;100.00
7026;BME280;3554;42.132;24.786;2023-03-14T01:31:26;99728.50;;;4.48;100.00
7026;BME280;3554;42.132;24.786;2023-03-14T01:33:54;99677.88;;;4.16;100.00
7026;BME280;3554;42.132;24.786;2023-03-14T01:36:21;99732.81;;;4.46;100.00
7026;BME280;3554;42.132;24.786;2023-03-14T01:38:47;99749.94;;;4.62;100.00
7026;BME280;3554;42.132;24.786;2023-03-14T01:41:17;99727.53;;;4.55;100.00
7026;BME280;3554;42.132;24.786;2023-03-14T01:43:45;99742.19;;;4.60;100.00
7026;BME280;3554;42.132;24.786;2023-03-14T01:46:32;99736.97;;;4.62;100.00
7026;BME280;3554;42.132;24.786;2023-03-14T01:49:04;99741.28;;;4.63;100.00
7026;BME280;3554;42.132;24.786;2023-03-14T01:51:36;99736.13;;;4.60;100.00
7026;BME280;3554;42.132;24.786;2023-03-14T01:54:08;99688.00;;;4.38;100.00
7026;BME280;3554;42.132;24.786;2023-03-14T01:56:37;99727.50;;;4.58;100.00
7026;BME280;3554;42.132;24.786;2023-03-14T01:59:08;99662.38;;;4.10;100.00
7026;BME280;3554;42.132;24.786;2023-03-14T02:01:38;99723.31;;;4.46;100.00
7026;BME280;3554;42.132;24.786;2023-03-14T02:04:07;99719.09;;;4.39;100.00
7026;BME280;3554;42.132;24.786;2023-03-14T02:06:41;99720.78;;;4.43;100.00
7026;BME280;3554;42.132;24.786;2023-03-14T02:09:10;99689.94;;;4.17;100.00
7026;BME280;3554;42.132;24.786;2023-03-14T02:11:37;99719.94;;;4.38;100.00
7026;BME280;3554;42.132;24.786;2023-03-14T02:14:07;99719.97;;;4.35;100.00
7026;BME280;3554;42.132;24.786;2023-03-14T02:16:36;99716.59;;;4.28;100.00
7026;BME280;3554;42.132;24.786;2023-03-14T02:19:03;99718.31;;;4.29;100.00
7026;BME280;3554;42.132;24.786;2023-03-14T02:21:40;99705.41;;;4.25;100.00
7026;BME280;3554;42.132;24.786;2023-03-14T02:24:15;99707.94;;;4.29;100.00
7026;BME280;3554;42.132;24.786;2023-03-14T02:29:45;99714.03;;;4.25;100.00
7026;BME280;3554;42.132;24.786;2023-03-14T02:32:14;99706.25;;;4.24;100.00
7026;BME280;3554;42.132;24.786;2023-03-14T02:34:45;99704.53;;;4.24;100.00
7026;BME280;3554;42.132;24.786;2023-03-14T02:37:13;99676.31;;;4.00;100.00
7026;BME280;3554;42.132;24.786;2023-03-14T02:39:43;99707.16;;;4.21;100.00
7026;BME280;3554;42.132;24.786;2023-03-14T02:42:11;99706.38;;;4.16;100.00
7026;BME280;3554;42.132;24.786;2023-03-14T02:44:51;99709.03;;;4.07;100.00
7026;BME280;3554;42.132;24.786;2023-03-14T02:47:20;99711.63;;;4.06;100.00
7026;BME280;3554;42.132;24.786;2023-03-14T02:49:47;99711.63;;;4.07;100.00
7026;BME280;3554;42.132;24.786;2023-03-14T02:52:14;99718.56;;;4.05;100.00
7026;BME280;3554;42.132;24.786;2023-03-14T02:54:41;99720.22;;;4.08;100.00
7026;BME280;3554;42.132;24.786;2023-03-14T02:57:08;99719.38;;;4.06;100.00
7026;BME280;3554;42.132;24.786;2023-03-14T02:59:35;99725.44;;;4.05;100.00
7026;BME280;3554;42.132;24.786;2023-03-14T03:02:03;99722.00;;;4.03;100.00
7026;BME280;3554;42.132;24.786;2023-03-14T03:04:30;99728.06;;;4.03;100.00
7026;BME280;3554;42.132;24.786;2023-03-14T03:06:56;99727.19;;;4.03;100.00
7026;BME280;3554;42.132;24.786;2023-03-14T03:09:23;99721.16;;;4.02;100.00
7026;BME280;3554;42.132;24.786;2023-03-14T03:11:50;99722.91;;;3.99;100.00
7026;BME280;3554;42.132;24.786;2023-03-14T03:14:17;99728.94;;;4.01;100.00
7026;BME280;3554;42.132;24.786;2023-03-14T03:16:43;99732.44;;;3.98;100.00
7026;BME280;3554;42.132;24.786;2023-03-14T03:19:12;99729.03;;;3.93;100.00
7026;BME280;3554;42.132;24.786;2023-03-14T03:21:39;99669.81;;;3.54;100.00
7026;BME280;3554;42.132;24.786;2023-03-14T03:24:06;99679.25;;;3.61;100.00
7026;BME280;3554;42.132;24.786;2023-03-14T03:26:33;99732.50;;;3.89;100.00
7026;BME280;3554;42.132;24.786;2023-03-14T03:29:00;99729.16;;;3.75;100.00
7026;BME280;3554;42.132;24.786;2023-03-14T03:31:27;99721.47;;;3.65;100.00
7026;BME280;3554;42.132;24.786;2023-03-14T03:33:53;99715.50;;;3.54;100.00
7026;BME280;3554;42.132;24.786;2023-03-14T03:36:22;99714.53;;;3.71;100.00
7026;BME280;3554;42.132;24.786;2023-03-14T03:38:49;99722.22;;;3.76;100.00
7026;BME280;3554;42.132;24.786;2023-03-14T03:41:16;99720.38;;;3.93;100.00
7026;BME280;3554;42.132;24.786;2023-03-14T03:43:43;99728.22;;;3.85;100.00
7026;BME280;3554;42.132;24.786;2023-03-14T03:46:10;99716.16;;;3.81;100.00
7026;BME280;3554;42.132;24.786;2023-03-14T03:48:36;99719.72;;;3.70;100.00
7026;BME280;3554;42.132;24.786;2023-03-14T03:51:04;99697.41;;;3.49;100.00
7026;BME280;3554;42.132;24.786;2023-03-14T03:53:32;99722.44;;;3.50;100.00
7026;BME280;3554;42.132;24.786;2023-03-14T03:55:59;99719.13;;;3.28;100.00
7026;BME280;3554;42.132;24.786;2023-03-14T03:58:26;99723.34;;;3.40;100.00
7026;BME280;3554;42.132;24.786;2023-03-14T04:00:53;99714.84;;;3.24;100.00
7026;BME280;3554;42.132;24.786;2023-03-14T04:03:20;99719.25;;;3.07;100.00
7026;BME280;3554;42.132;24.786;2023-03-14T04:05:57;99711.53;;;3.00;100.00
7026;BME280;3554;42.132;24.786;2023-03-14T04:08:24;99710.72;;;2.87;100.00
7026;BME280;3554;42.132;24.786;2023-03-14T04:10:56;99704.78;;;2.70;100.00
7026;BME280;3554;42.132;24.786;2023-03-14T04:13:23;99704.88;;;2.42;100.00
7026;BME280;3554;42.132;24.786;2023-03-14T04:15:50;99709.13;;;2.52;100.00
7026;BME280;3554;42.132;24.786;2023-03-14T04:18:17;99704.88;;;2.36;100.00
7026;BME280;3554;42.132;24.786;2023-03-14T04:20:45;99691.97;;;2.36;100.00
7026;BME280;3554;42.132;24.786;2023-03-14T04:23:11;99683.38;;;2.28;100.00
7026;BME280;3554;42.132;24.786;2023-03-14T04:25:38;99687.66;;;2.32;100.00
7026;BME280;3554;42.132;24.786;2023-03-14T04:28:06;99679.94;;;2.22;100.00
7026;BME280;3554;42.132;24.786;2023-03-14T04:30:33;99683.41;;;2.18;100.00
7026;BME280;3554;42.132;24.786;2023-03-14T04:33:00;99689.41;;;2.19;100.00
7026;BME280;3554;42.132;24.786;2023-03-14T04:35:27;99693.72;;;2.18;100.00
7026;BME280;3554;42.132;24.786;2023-03-14T04:37:56;99681.69;;;2.14;100.00
7026;BME280;3554;42.132;24.786;2023-03-14T04:40:23;99682.50;;;2.22;100.00
7026;BME280;3554;42.132;24.786;2023-03-14T04:42:50;99686.81;;;2.34;100.00
7026;BME280;3554;42.132;24.786;2023-03-14T04:45:18;99684.22;;;2.27;100.00
7026;BME280;3554;42.132;24.786;2023-03-14T04:47:45;99679.06;;;2.33;100.00
7026;BME280;3554;42.132;24.786;2023-03-14T04:50:11;99688.50;;;2.41;100.00
7026;BME280;3554;42.132;24.786;2023-03-14T04:52:38;99689.38;;;2.43;100.00
7026;BME280;3554;42.132;24.786;2023-03-14T04:55:05;99692.75;;;2.51;100.00
7026;BME280;3554;42.132;24.786;2023-03-14T04:57:32;99702.28;;;2.37;100.00
7026;BME280;3554;42.132;24.786;2023-03-14T04:59:59;99697.97;;;2.38;100.00
7026;BME280;3554;42.132;24.786;2023-03-14T05:02:27;99701.44;;;2.26;100.00
7026;BME280;3554;42.132;24.786;2023-03-14T05:04:54;99700.63;;;2.24;100.00
7026;BME280;3554;42.132;24.786;2023-03-14T05:07:20;99702.28;;;2.39;100.00
7026;BME280;3554;42.132;24.786;2023-03-14T05:09:47;99694.53;;;2.42;100.00
7026;BME280;3554;42.132;24.786;2023-03-14T05:12:14;99699.59;;;2.67;100.00
7026;BME280;3554;42.132;24.786;2023-03-14T05:14:41;99708.97;;;2.95;100.00
7026;BME280;3554;42.132;24.786;2023-03-14T05:17:08;99706.28;;;3.15;100.00
7026;BME280;3554;42.132;24.786;2023-03-14T05:19:36;99709.53;;;3.44;100.00
7026;BME280;3554;42.132;24.786;2023-03-14T05:22:03;99713.75;;;3.59;100.00
7026;BME280;3554;42.132;24.786;2023-03-14T05:24:30;99706.03;;;3.50;100.00
7026;BME280;3554;42.132;24.786;2023-03-14T05:26:56;99712.78;;;3.70;100.00
7026;BME280;3554;42.132;24.786;2023-03-14T05:29:23;99715.97;;;4.01;100.00
7026;BME280;3554;42.132;24.786;2023-03-14T05:31:50;99715.78;;;4.23;100.00
7026;BME280;3554;42.132;24.786;2023-03-14T05:34:17;99721.69;;;4.39;100.00
7026;BME280;3554;42.132;24.786;2023-03-14T05:36:45;99713.59;;;4.68;100.00
7026;BME280;3554;42.132;24.786;2023-03-14T05:39:12;99716.06;;;4.77;100.00
7026;BME280;3554;42.132;24.786;2023-03-14T05:41:38;99715.13;;;4.84;100.00
7026;BME280;3554;42.132;24.786;2023-03-14T05:44:05;99718.50;;;4.89;100.00
7026;BME280;3554;42.132;24.786;2023-03-14T05:46:32;99711.56;;;4.91;100.00
7026;BME280;3554;42.132;24.786;2023-03-14T05:48:59;99718.31;;;5.05;100.00
7026;BME280;3554;42.132;24.786;2023-03-14T05:51:26;99713.75;;;5.21;100.00
7026;BME280;3554;42.132;24.786;2023-03-14T05:53:54;99711.03;;;5.30;100.00
7026;BME280;3554;42.132;24.786;2023-03-14T05:56:21;99712.81;;;5.28;100.00
7026;BME280;3554;42.132;24.786;2023-03-14T05:58:48;99724.13;;;5.22;100.00
7026;BME280;3554;42.132;24.786;2023-03-14T06:01:14;99718.97;;;5.19;100.00
7026;BME280;3554;42.132;24.786;2023-03-14T06:03:41;99710.28;;;5.22;100.00
7026;BME280;3554;42.132;24.786;2023-03-14T06:06:08;99713.56;;;5.34;100.00
7026;BME280;3554;42.132;24.786;2023-03-14T06:08:35;99708.28;;;5.40;100.00
7026;BME280;3554;42.132;24.786;2023-03-14T06:11:04;99717.50;;;5.61;100.00
7026;BME280;3554;42.132;24.786;2023-03-14T06:13:31;99716.53;;;5.67;100.00
7026;BME280;3554;42.132;24.786;2023-03-14T06:15:57;99716.59;;;5.03;100.00
7026;BME280;3554;42.132;24.786;2023-03-14T06:18:24;99711.66;;;4.83;100.00
7026;BME280;3554;42.132;24.786;2023-03-14T06:20:53;99663.09;;;4.24;100.00
7026;BME280;3554;42.132;24.786;2023-03-14T06:23:20;99711.03;;;4.63;100.00
7026;BME280;3554;42.132;24.786;2023-03-14T06:25:47;99700.88;;;4.47;100.00
7026;BME280;3554;42.132;24.786;2023-03-14T06:28:15;99701.34;;;4.77;100.00
7026;BME280;3554;42.132;24.786;2023-03-14T06:30:42;99688.97;;;5.02;100.00
7026;BME280;3554;42.132;24.786;2023-03-14T06:33:09;99697.41;;;5.16;100.00
7026;BME280;3554;42.132;24.786;2023-03-14T06:35:36;99697.56;;;5.04;100.00
7026;BME280;3554;42.132;24.786;2023-03-14T06:38:03;99695.72;;;5.12;100.00
7026;BME280;3554;42.132;24.786;2023-03-14T06:40:30;99697.78;;;5.50;100.00
7026;BME280;3554;42.132;24.786;2023-03-14T06:42:56;99698.63;;;5.52;100.00
7026;BME280;3554;42.132;24.786;2023-03-14T06:45:25;99707.06;;;5.64;100.00
7026;BME280;3554;42.132;24.786;2023-03-14T06:47:51;99706.75;;;5.27;100.00
7026;BME280;3554;42.132;24.786;2023-03-14T06:50:18;99712.09;;;5.17;100.00
7026;BME280;3554;42.132;24.786;2023-03-14T06:52:47;99711.38;;;5.04;100.00
7026;BME280;3554;42.132;24.786;2023-03-14T06:55:14;99703.81;;;4.88;100.00
7026;BME280;3554;42.132;24.786;2023-03-14T06:57:41;99680.22;;;5.09;100.00
7026;BME280;3554;42.132;24.786;2023-03-14T07:00:10;99691.50;;;5.63;100.00
7026;BME280;3554;42.132;24.786;2023-03-14T07:02:39;99690.91;;;6.00;100.00
7026;BME280;3554;42.132;24.786;2023-03-14T07:05:06;99681.56;;;6.37;100.00
7026;BME280;3554;42.132;24.786;2023-03-14T07:07:35;99662.44;;;6.41;100.00
7026;BME280;3554;42.132;24.786;2023-03-14T07:10:03;99688.78;;;6.69;100.00
7026;BME280;3554;42.132;24.786;2023-03-14T07:12:29;99677.34;;;6.75;100.00
7026;BME280;3554;42.132;24.786;2023-03-14T07:14:56;99677.69;;;7.01;100.00
7026;BME280;3554;42.132;24.786;2023-03-14T07:17:23;99674.03;;;7.09;100.00
7026;BME280;3554;42.132;24.786;2023-03-14T07:19:51;99646.06;;;6.79;100.00
7026;BME280;3554;42.132;24.786;2023-03-14T07:22:18;99668.97;;;7.02;100.00
7026;BME280;3554;42.132;24.786;2023-03-14T07:24:44;99655.78;;;7.11;100.00
7026;BME280;3554;42.132;24.786;2023-03-14T07:27:11;99659.59;;;7.34;100.00
7026;BME280;3554;42.132;24.786;2023-03-14T07:29:38;99652.78;;;7.64;100.00
7026;BME280;3554;42.132;24.786;2023-03-14T07:32:05;99656.00;;;7.75;100.00
7026;BME280;3554;42.132;24.786;2023-03-14T07:34:31;99661.63;;;7.57;100.00
7026;BME280;3554;42.132;24.786;2023-03-14T07:37:00;99654.13;;;7.80;100.00
7026;BME280;3554;42.132;24.786;2023-03-14T07:39:26;99656.03;;;8.07;100.00
7026;BME280;3554;42.132;24.786;2023-03-14T07:41:53;99645.19;;;7.90;100.00
7026;BME280;3554;42.132;24.786;2023-03-14T07:44:20;99649.72;;;8.16;100.00
7026;BME280;3554;42.132;24.786;2023-03-14T07:46:46;99650.72;;;8.10;100.00
7026;BME280;3554;42.132;24.786;2023-03-14T07:49:13;99643.69;;;8.14;100.00
7026;BME280;3554;42.132;24.786;2023-03-14T07:51:40;99644.06;;;8.00;100.00
7026;BME280;3554;42.132;24.786;2023-03-14T07:54:10;99640.16;;;8.16;100.00
7026;BME280;3554;42.132;24.786;2023-03-14T07:56:37;99643.31;;;8.29;100.00
7026;BME280;3554;42.132;24.786;2023-03-14T07:59:04;99637.16;;;8.31;100.00
7026;BME280;3554;42.132;24.786;2023-03-14T08:01:30;99639.81;;;8.30;100.00
7026;BME280;3554;42.132;24.786;2023-03-14T08:03:57;99632.03;;;8.28;100.00
7026;BME280;3554;42.132;24.786;2023-03-14T08:06:24;99637.34;;;8.25;100.00
7026;BME280;3554;42.132;24.786;2023-03-14T08:08:51;99632.84;;;8.30;100.00
7026;BME280;3554;42.132;24.786;2023-03-14T08:11:19;99634.09;;;8.48;100.00
7026;BME280;3554;42.132;24.786;2023-03-14T08:13:46;99628.56;;;8.58;100.00
7026;BME280;3554;42.132;24.786;2023-03-14T08:16:15;99625.91;;;7.27;100.00
7026;BME280;3554;42.132;24.786;2023-03-14T08:18:42;99630.47;;;7.54;100.00
7026;BME280;3554;42.132;24.786;2023-03-14T08:21:09;99628.31;;;8.03;100.00
7026;BME280;3554;42.132;24.786;2023-03-14T08:23:36;99580.78;;;7.26;100.00
7026;BME280;3554;42.132;24.786;2023-03-14T08:26:03;99628.66;;;7.21;100.00
7026;BME280;3554;42.132;24.786;2023-03-14T08:28:31;99623.84;;;7.41;100.00
7026;BME280;3554;42.132;24.786;2023-03-14T08:30:59;99623.91;;;7.38;100.00
7026;BME280;3554;42.132;24.786;2023-03-14T08:33:27;99622.97;;;7.76;100.00
7026;BME280;3554;42.132;24.786;2023-03-14T08:35:54;99626.91;;;7.92;100.00
7026;BME280;3554;42.132;24.786;2023-03-14T08:38:21;99618.13;;;7.94;100.00
7026;BME280;3554;42.132;24.786;2023-03-14T08:40:48;99611.78;;;8.38;100.00
7026;BME280;3554;42.132;24.786;2023-03-14T08:43:15;99610.25;;;8.60;100.00
7026;BME280;3554;42.132;24.786;2023-03-14T08:45:43;99600.00;;;8.83;100.00
7026;BME280;3554;42.132;24.786;2023-03-14T08:48:10;99603.84;;;8.99;97.21
7026;BME280;3554;42.132;24.786;2023-03-14T08:50:37;99597.41;;;9.11;91.94
7026;BME280;3554;42.132;24.786;2023-03-14T08:53:03;99594.13;;;9.04;92.61
7026;BME280;3554;42.132;24.786;2023-03-14T08:55:30;99592.91;;;9.16;90.88
7026;BME280;3554;42.132;24.786;2023-03-14T08:57:57;99586.34;;;9.30;90.69
7026;BME280;3554;42.132;24.786;2023-03-14T09:00:24;99582.78;;;9.59;89.45
7026;BME280;3554;42.132;24.786;2023-03-14T09:02:52;99577.88;;;9.22;92.25
7026;BME280;3554;42.132;24.786;2023-03-14T09:05:18;99573.81;;;9.41;88.58
7026;BME280;3554;42.132;24.786;2023-03-14T09:07:45;99561.84;;;9.60;90.19
7026;BME280;3554;42.132;24.786;2023-03-14T09:10:12;99555.78;;;9.58;83.67
7026;BME280;3554;42.132;24.786;2023-03-14T09:12:39;99561.44;;;9.46;82.72
7026;BME280;3554;42.132;24.786;2023-03-14T09:15:07;99549.72;;;9.58;82.26
7026;BME280;3554;42.132;24.786;2023-03-14T09:17:33;99542.56;;;9.63;83.75
7026;BME280;3554;42.132;24.786;2023-03-14T09:20:02;99538.25;;;9.87;84.79
7026;BME280;3554;42.132;24.786;2023-03-14T09:22:32;99530.41;;;10.11;84.80
7026;BME280;3554;42.132;24.786;2023-03-14T09:24:58;99531.28;;;10.12;81.11
7026;BME280;3554;42.132;24.786;2023-03-14T09:27:25;99529.16;;;9.98;82.74
7026;BME280;3554;42.132;24.786;2023-03-14T09:29:52;99516.69;;;10.29;81.49
7026;BME280;3554;42.132;24.786;2023-03-14T09:32:18;99519.41;;;10.26;80.37
7026;BME280;3554;42.132;24.786;2023-03-14T09:34:45;99502.78;;;10.29;79.25
7026;BME280;3554;42.132;24.786;2023-03-14T09:37:13;99503.31;;;10.14;75.84
7026;BME280;3554;42.132;24.786;2023-03-14T09:39:41;99498.75;;;9.46;78.54
7026;BME280;3554;42.132;24.786;2023-03-14T09:42:13;99496.34;;;9.90;79.14
7026;BME280;3554;42.132;24.786;2023-03-14T09:44:48;99498.44;;;9.55;77.13
7026;BME280;3554;42.132;24.786;2023-03-14T09:47:18;99478.75;;;9.70;74.85
7026;BME280;3554;42.132;24.786;2023-03-14T09:49:46;99492.22;;;10.07;77.81
7026;BME280;3554;42.132;24.786;2023-03-14T09:52:16;99491.06;;;9.91;73.36
7026;BME280;3554;42.132;24.786;2023-03-14T09:54:46;99488.31;;;10.19;71.47
7026;BME280;3554;42.132;24.786;2023-03-14T09:57:16;99479.97;;;10.32;73.51
7026;BME280;3554;42.132;24.786;2023-03-14T09:59:44;99491.44;;;10.51;74.10
7026;BME280;3554;42.132;24.786;2023-03-14T10:02:16;99483.59;;;10.73;71.02
7026;BME280;3554;42.132;24.786;2023-03-14T10:04:45;99484.31;;;10.76;68.66
7026;BME280;3554;42.132;24.786;2023-03-14T10:07:15;99467.47;;;10.84;69.66
7026;BME280;3554;42.132;24.786;2023-03-14T10:09:45;99451.91;;;10.57;72.25
7026;BME280;3554;42.132;24.786;2023-03-14T10:12:12;99467.81;;;10.96;69.52
7026;BME280;3554;42.132;24.786;2023-03-14T10:14:46;99452.25;;;11.13;69.57
7026;BME280;3554;42.132;24.786;2023-03-14T10:17:14;99450.72;;;10.66;69.67
7026;BME280;3554;42.132;24.786;2023-03-14T10:19:53;99438.72;;;10.82;71.32
7026;BME280;3554;42.132;24.786;2023-03-14T10:22:23;99430.22;;;10.97;71.07
7026;BME280;3554;42.132;24.786;2023-03-14T10:24:53;99406.59;;;10.99;73.57
7026;BME280;3554;42.132;24.786;2023-03-14T10:27:22;99410.75;;;11.24;77.79
7026;BME280;3554;42.132;24.786;2023-03-14T10:29:55;99412.44;;;11.25;71.12
7026;BME280;3554;42.132;24.786;2023-03-14T10:32:28;99411.94;;;11.37;66.13
7026;BME280;3554;42.132;24.786;2023-03-14T10:35:18;99413.78;;;11.54;66.47
7026;BME280;3554;42.132;24.786;2023-03-14T10:37:53;99406.47;;;11.62;64.93
7026;BME280;3554;42.132;24.786;2023-03-14T10:40:26;99396.00;;;11.42;65.31
7026;BME280;3554;42.132;24.786;2023-03-14T10:42:53;99400.56;;;11.77;66.11
7026;BME280;3554;42.132;24.786;2023-03-14T10:45:32;99378.25;;;11.08;64.07
7026;BME280;3554;42.132;24.786;2023-03-14T10:48:07;99360.09;;;11.04;65.12
7026;BME280;3554;42.132;24.786;2023-03-14T10:50:48;99365.88;;;11.12;63.71
7026;BME280;3554;42.132;24.786;2023-03-14T10:53:17;99370.34;;;11.30;64.01
7026;BME280;3554;42.132;24.786;2023-03-14T10:55:45;99330.72;;;11.17;63.04
7026;BME280;3554;42.132;24.786;2023-03-14T10:58:23;99359.16;;;11.65;63.03
7026;BME280;3554;42.132;24.786;2023-03-14T11:00:57;99361.53;;;11.31;61.39
7026;BME280;3554;42.132;24.786;2023-03-14T11:03:28;99358.81;;;11.14;59.96
7026;BME280;3554;42.132;24.786;2023-03-14T11:06:00;99327.06;;;11.40;64.29
7026;BME280;3554;42.132;24.786;2023-03-14T11:08:35;99318.13;;;11.64;62.78
7026;BME280;3554;42.132;24.786;2023-03-14T11:11:11;99327.75;;;11.82;62.22
7026;BME280;3554;42.132;24.786;2023-03-14T11:13:43;99318.53;;;12.11;62.26
7026;BME280;3554;42.132;24.786;2023-03-14T11:16:18;99305.25;;;12.32;59.85
7026;BME280;3554;42.132;24.786;2023-03-14T11:19:00;99308.53;;;12.54;59.24
7026;BME280;3554;42.132;24.786;2023-03-14T11:21:32;99306.22;;;12.65;58.24
7026;BME280;3554;42.132;24.786;2023-03-14T11:24:17;99242.19;;;11.98;60.51
7026;BME280;3554;42.132;24.786;2023-03-14T11:26:51;99278.03;;;12.16;59.39
7026;BME280;3554;42.132;24.786;2023-03-14T11:29:22;99268.94;;;11.88;60.16
7026;BME280;3554;42.132;24.786;2023-03-14T11:31:55;99266.16;;;12.09;61.35
7026;BME280;3554;42.132;24.786;2023-03-14T11:34:28;99246.72;;;12.13;60.21
7026;BME280;3554;42.132;24.786;2023-03-14T11:36:59;99247.38;;;12.35;59.25
7026;BME280;3554;42.132;24.786;2023-03-14T11:39:37;99240.06;;;12.23;60.46
7026;BME280;3554;42.132;24.786;2023-03-14T11:42:09;99237.22;;;12.11;60.86
7026;BME280;3554;42.132;24.786;2023-03-14T11:44:37;99215.47;;;12.26;59.85
7026;BME280;3554;42.132;24.786;2023-03-14T11:47:07;99218.94;;;12.60;59.86
7026;BME280;3554;42.132;24.786;2023-03-14T11:49:40;99207.22;;;12.50;59.87
7026;BME280;3554;42.132;24.786;2023-03-14T11:52:13;99200.03;;;12.37;60.49
7026;BME280;3554;42.132;24.786;2023-03-14T11:54:46;99193.28;;;11.97;62.28
7026;BME280;3554;42.132;24.786;2023-03-14T11:57:17;99177.09;;;12.23;62.43
7026;BME280;3554;42.132;24.786;2023-03-14T11:59:50;99171.72;;;12.26;62.36
7026;BME280;3554;42.132;24.786;2023-03-14T12:02:22;99154.72;;;12.33;62.07
7026;BME280;3554;42.132;24.786;2023-03-14T12:05:14;99164.97;;;12.55;61.97
7026;BME280;3554;42.132;24.786;2023-03-14T12:07:52;99155.72;;;12.80;61.97
7026;BME280;3554;42.132;24.786;2023-03-14T12:10:36;99137.72;;;12.90;61.75
7026;BME280;3554;42.132;24.786;2023-03-14T12:13:03;99129.66;;;12.93;61.84
7026;BME280;3554;42.132;24.786;2023-03-14T12:15:30;99125.00;;;12.98;62.41
7026;BME280;3554;42.132;24.786;2023-03-14T12:17:59;99117.16;;;13.14;62.25
7026;BME280;3554;42.132;24.786;2023-03-14T12:20:26;99108.19;;;13.02;61.85
7026;BME280;3554;42.132;24.786;2023-03-14T12:22:55;99100.13;;;13.05;62.84
7026;BME280;3554;42.132;24.786;2023-03-14T12:25:25;99105.72;;;13.15;63.19
7026;BME280;3554;42.132;24.786;2023-03-14T12:28:19;99097.72;;;13.01;63.19
7026;BME280;3554;42.132;24.786;2023-03-14T12:30:46;99072.25;;;13.03;63.49
7026;BME280;3554;42.132;24.786;2023-03-14T12:33:31;99080.72;;;13.23;63.43
7026;BME280;3554;42.132;24.786;2023-03-14T12:36:04;99075.28;;;13.11;64.78
7026;BME280;3554;42.132;24.786;2023-03-14T12:38:46;99080.31;;;13.15;64.14
7026;BME280;3554;42.132;24.786;2023-03-14T12:41:20;99068.75;;;13.18;65.43
7026;BME280;3554;42.132;24.786;2023-03-14T12:43:50;99072.25;;;13.03;65.36
7026;BME280;3554;42.132;24.786;2023-03-14T12:46:22;99068.34;;;13.10;66.28
7026;BME280;3554;42.132;24.786;2023-03-14T12:48:55;99046.19;;;13.14;64.98
7026;BME280;3554;42.132;24.786;2023-03-14T12:51:29;99040.22;;;13.12;66.36
7026;BME280;3554;42.132;24.786;2023-03-14T12:54:10;99055.78;;;13.30;65.08
7026;BME280;3554;42.132;24.786;2023-03-14T12:59:46;99057.72;;;13.27;63.48
7026;BME280;3554;42.132;24.786;2023-03-14T13:02:25;99030.44;;;13.14;62.85
7026;BME280;3554;42.132;24.786;2023-03-14T13:05:02;99004.69;;;13.05;63.11
7026;BME280;3554;42.132;24.786;2023-03-14T13:07:35;99038.41;;;13.28;62.17
7026;BME280;3554;42.132;24.786;2023-03-14T13:10:18;98991.13;;;12.81;65.19
7026;BME280;3554;42.132;24.786;2023-03-14T13:12:49;98996.06;;;13.03;63.46
7026;BME280;3554;42.132;24.786;2023-03-14T13:15:21;99043.13;;;13.37;61.54
7026;BME280;3554;42.132;24.786;2023-03-14T13:17:51;99025.28;;;13.28;60.72
7026;BME280;3554;42.132;24.786;2023-03-14T13:20:24;99011.50;;;13.38;61.84
7026;BME280;3554;42.132;24.786;2023-03-14T13:22:53;99014.19;;;13.37;60.66
7026;BME280;3554;42.132;24.786;2023-03-14T13:25:20;99017.69;;;13.37;60.70
7026;BME280;3554;42.132;24.786;2023-03-14T13:27:48;99016.34;;;13.30;60.37